• Join FlightAware (Why Join?)
  • Login
  • US Flag 
11:24AM EDT


 

Airport Tracker/Info


-or-


 

Live Flight TrackerFlight Track Log ✈ DAL3970 ✈ 05-May-2013 ✈ KCWA - KDTW

Flight Track Log - Related Links

Times and Time Zones

All times are in EDT time to prevent confusion due to time zone crossing. See the DAL3970 flight status page for this flight to view local times or setup timezone preferences in your user account.

Time Position Orientation Groundspeed Altitude Reporting Facility
EDT Latitude Longitude Course Direction KTS MPH feet Rate Location/Type
07:38AM 44.7867 -89.6278 109° East 163 188 2,500  Level Minneapolis Center
07:39AM 44.7753 -89.5589 103° East 185 213 4,300 1,980 Climbing Minneapolis Center
07:40AM 44.7603 -89.4653 103° East 231 266 6,500 2,520 Climbing Minneapolis Center
07:41AM 44.7054 -89.2194 107° East  Level FlightAware Approximate
07:41AM 44.7453 -89.3644 102° East 270 311 9,400  Level Minneapolis Center
07:42AM 44.6833 -89.1095 90° East  Level FlightAware Approximate
07:42AM 44.7264 -89.2472 103° East 294 338 11,300  Level Minneapolis Center
07:43AM 44.6782 -88.9962 109° East  Level FlightAware Approximate
07:43AM 44.7081 -89.1247 102° East 332 382 12,800  Level Minneapolis Center
07:44AM 44.6842 -88.9842 103° East 352 405 14,600 1,920 Climbing Minneapolis Center
07:45AM 44.6631 -88.8453 102° East 360 414 16,700 1,980 Climbing Minneapolis Center
07:46AM 44.6417 -88.7097 102° East 357 411 18,700 1,740 Climbing Minneapolis Center
07:47AM 44.6192 -88.5753 103° East 354 407 20,300 1,440 Climbing Minneapolis Center
07:48AM 44.5967 -88.4386 103° East 358 412 21,700 1,260 Climbing Minneapolis Center
07:49AM 44.5722 -88.2967 104° East 368 423 22,900 1,140 Climbing Minneapolis Center
07:50AM 44.5375 -88.1567 109° East 383 441 24,000 1,080 Climbing Minneapolis Center
07:51AM 44.4739 -88.0367 127° Southeast 384 442 25,100 840 Climbing Minneapolis Center
07:52AM 44.3983 -87.8914 126° Southeast 394 453 25,900 720 Climbing Minneapolis Center
07:53AM 44.3322 -87.7619 125° Southeast 405 466 26,800 540 Climbing Minneapolis Center
07:54AM 44.2653 -87.6356 126° Southeast 404 465 27,000 60 Climbing Minneapolis Center
07:55AM 44.1958 -87.5011 126° Southeast 420 483 27,000  Level Minneapolis Center
07:56AM 44.1258 -87.3678 126° Southeast 424 488 27,000  Level Minneapolis Center
07:57AM 44.0686 -87.2578 126° Southeast 422 486 27,000  Level Minneapolis Center
07:58AM 43.9822 -87.0953 126° Southeast 421 484 27,000  Level Minneapolis Center
07:59AM 43.9133 -86.9644 126° Southeast 421 484 27,000  Level Minneapolis Center
08:00AM 43.8458 -86.8322 125° Southeast 420 483 27,000  Level Minneapolis Center
08:01AM 43.7919 -86.6861 117° Southeast 424 488 27,000  Level Minneapolis Center
08:02AM 43.7403 -86.5397 116° Southeast 424 488 27,000  Level Minneapolis Center
08:03AM 43.6869 -86.3942 117° Southeast 424 488 27,000  Level Minneapolis Center
08:04AM 43.6336 -86.2497 117° Southeast 423 487 27,000  Level Minneapolis Center
08:05AM 43.5803 -86.1044 117° Southeast 423 487 27,000  Level Minneapolis Center
08:06AM 43.5269 -85.9589 117° Southeast 424 488 27,000 -240 Level Minneapolis Center
08:08AM 43.4394 -85.7292 118° Southeast 421 484 26,400 -660 Descending Minneapolis Center
08:09AM 43.3844 -85.5836 117° Southeast 424 488 25,400 -960 Descending Minneapolis Center
08:10AM 43.3528 -85.4972 117° Southeast 422 486 24,800 -1,080 Descending Chicago Center
08:11AM 43.2994 -85.3561 117° Southeast 419 482 23,800 -1,020 Descending Cleveland Center
08:12AM 43.2486 -85.2211 117° Southeast 414 476 23,000 -420 Descending Cleveland Center
08:13AM 43.2189 -85.0764 106° East 402 463 23,000  Level Cleveland Center
08:14AM 43.1914 -84.9261 104° East 396 456 23,000 -420 Level Cleveland Center
08:15AM 43.1636 -84.7761 104° East 396 456 22,200 -1,200 Descending Cleveland Center
08:16AM 43.1375 -84.6292 104° East 396 456 20,700 -1,440 Descending Cleveland Center
08:17AM 43.1092 -84.4822 105° East 408 470 19,400 -1,200 Descending Cleveland Center
08:17AM 43.1042 -84.4517 103° East 400 460 19,200 -1,020 Descending Chicago Center
08:18AM 43.0858 -84.3672 107° East 402 463 18,400 -1,260 Descending Cleveland Center
08:19AM 43.0536 -84.2003 105° East 390 449 17,100 -1,320 Descending Cleveland Center
08:20AM 43.0247 -84.0622 106° East 385 443 15,800 -1,320 Descending Cleveland Center
08:21AM 42.9994 -83.9303 105° East 379 436 14,500 -1,380 Descending Cleveland Center
08:21AM 42.9922 -83.8844 102° East 353 406 14,000 -1,380 Descending Cleveland Center
08:21AM 42.9811 -83.8442 111° Southeast 345 397 13,600 -1,260 Descending Cleveland Center
08:22AM 42.9611 -83.8119 130° Southeast 369 425 13,200 -1,320 Descending Cleveland Center
08:22AM 42.9036 -83.7778 156° South 340 391 12,300 -1,200 Descending Cleveland Center
08:23AM 42.8750 -83.7592 155° Southeast 317 365 12,000 -300 Descending Cleveland Center
08:23AM 42.8156 -83.7250 157° South 338 389 12,000  Level Cleveland Center
08:24AM 42.7889 -83.7067 153° Southeast 324 373 12,000  Level Cleveland Center
08:24AM 42.7250 -83.6725 159° South 339 390 12,000  Level Cleveland Center
08:25AM 42.7025 -83.6572 153° Southeast 329 379 12,000  Level Cleveland Center
08:25AM 42.6389 -83.6203 157° South 338 389 12,000  Level Cleveland Center
08:26AM 42.6144 -83.6050 155° Southeast 341 392 12,000  Level Cleveland Center
08:26AM 42.5528 -83.5681 156° South 338 389 12,000  Level Cleveland Center
08:27AM 42.5281 -83.5558 160° South 341 392 12,000  Level Cleveland Center
08:27AM 42.4644 -83.5161 155° Southeast 339 390 12,000  Level Cleveland Center
08:28AM 42.4419 -83.5039 158° South 341 392 12,000  Level Cleveland Center
08:28AM 42.3844 -83.4703 157° South 282 325 12,000  Level Cleveland Center
08:29AM 42.3658 -83.4581 154° Southeast 326 375 12,000 -900 Level Cleveland Center
08:29AM 42.3136 -83.4614 183° South 243 280 11,100 -1,440 Descending Cleveland Center
08:30AM 42.2467 -83.4694 185° South 247 284 9,500 -1,680 Descending Cleveland Center
08:31AM 42.1875 -83.5089 206° Southwest 240 276 7,800 -1,920 Descending Cleveland Center
08:32AM 42.1381 -83.5600 217° Southwest 242 278 5,900 -2,040 Descending Cleveland Center
08:33AM 42.0864 -83.5461 169° South 219 252 3,900 -1,500 Descending Cleveland Center
08:34AM 42.1197 -83.4694 60° Northeast 194 223 2,800 -1,020 Descending Cleveland Center
08:35AM 42.1561 -83.4206 45° Northeast 168 193 1,800 -1,020 Descending Cleveland Center